sensor_id;sensor_type;location;lat;lon;timestamp;P1;durP1;ratioP1;P2;durP2;ratioP2
59876;SDS011;45749;51.140;17.184;2022-08-01T00:01:06;3.83;;;3.22;;
59876;SDS011;45749;51.140;17.184;2022-08-01T00:03:34;4.05;;;2.98;;
59876;SDS011;45749;51.140;17.184;2022-08-01T00:06:00;3.62;;;2.95;;
59876;SDS011;45749;51.140;17.184;2022-08-01T00:11:15;5.40;;;3.22;;
59876;SDS011;45749;51.140;17.184;2022-08-01T00:16:06;4.40;;;2.83;;
59876;SDS011;45749;51.140;17.184;2022-08-01T00:18:33;3.52;;;3.22;;
59876;SDS011;45749;51.140;17.184;2022-08-01T00:21:01;4.75;;;2.62;;
59876;SDS011;45749;51.140;17.184;2022-08-01T00:23:29;3.67;;;3.12;;
59876;SDS011;45749;51.140;17.184;2022-08-01T00:25:59;5.95;;;3.77;;
59876;SDS011;45749;51.140;17.184;2022-08-01T00:28:23;3.08;;;2.72;;
59876;SDS011;45749;51.140;17.184;2022-08-01T00:30:49;3.42;;;3.12;;
59876;SDS011;45749;51.140;17.184;2022-08-01T00:36:07;6.78;;;3.70;;
59876;SDS011;45749;51.140;17.184;2022-08-01T00:38:34;4.17;;;2.90;;
59876;SDS011;45749;51.140;17.184;2022-08-01T00:41:01;6.08;;;3.37;;
59876;SDS011;45749;51.140;17.184;2022-08-01T00:43:28;3.85;;;3.45;;
59876;SDS011;45749;51.140;17.184;2022-08-01T00:46:06;5.95;;;3.98;;
59876;SDS011;45749;51.140;17.184;2022-08-01T00:48:47;5.55;;;4.30;;
59876;SDS011;45749;51.140;17.184;2022-08-01T00:54:17;6.92;;;4.58;;
59876;SDS011;45749;51.140;17.184;2022-08-01T00:56:44;6.80;;;4.80;;
59876;SDS011;45749;51.140;17.184;2022-08-01T00:59:14;5.55;;;4.55;;
59876;SDS011;45749;51.140;17.184;2022-08-01T01:01:42;5.55;;;4.40;;
59876;SDS011;45749;51.140;17.184;2022-08-01T01:04:09;6.42;;;4.58;;
59876;SDS011;45749;51.140;17.184;2022-08-01T01:06:43;5.40;;;4.75;;
59876;SDS011;45749;51.140;17.184;2022-08-01T01:12:32;6.08;;;4.67;;
59876;SDS011;45749;51.140;17.184;2022-08-01T01:15:45;5.35;;;4.25;;
59876;SDS011;45749;51.140;17.184;2022-08-01T01:18:18;4.75;;;4.33;;
59876;SDS011;45749;51.140;17.184;2022-08-01T01:26:52;4.10;;;3.67;;
59876;SDS011;45749;51.140;17.184;2022-08-01T01:29:27;7.25;;;4.47;;
59876;SDS011;45749;51.140;17.184;2022-08-01T01:35:19;7.25;;;3.55;;
59876;SDS011;45749;51.140;17.184;2022-08-01T01:37:56;5.25;;;3.90;;
59876;SDS011;45749;51.140;17.184;2022-08-01T01:40:25;3.77;;;3.15;;
59876;SDS011;45749;51.140;17.184;2022-08-01T01:42:52;4.53;;;3.67;;
59876;SDS011;45749;51.140;17.184;2022-08-01T01:45:20;6.33;;;3.75;;
59876;SDS011;45749;51.140;17.184;2022-08-01T01:47:49;5.75;;;4.08;;
59876;SDS011;45749;51.140;17.184;2022-08-01T01:50:16;7.90;;;3.90;;
59876;SDS011;45749;51.140;17.184;2022-08-01T01:52:46;4.97;;;3.52;;
59876;SDS011;45749;51.140;17.184;2022-08-01T01:55:14;6.83;;;4.00;;
59876;SDS011;45749;51.140;17.184;2022-08-01T01:57:42;5.22;;;3.70;;
59876;SDS011;45749;51.140;17.184;2022-08-01T02:00:10;4.28;;;3.80;;
59876;SDS011;45749;51.140;17.184;2022-08-01T02:02:38;4.60;;;4.17;;
59876;SDS011;45749;51.140;17.184;2022-08-01T02:05:07;5.28;;;3.50;;
59876;SDS011;45749;51.140;17.184;2022-08-01T02:07:36;4.95;;;3.60;;
59876;SDS011;45749;51.140;17.184;2022-08-01T02:10:04;5.10;;;4.00;;
59876;SDS011;45749;51.140;17.184;2022-08-01T02:12:36;5.30;;;4.05;;
59876;SDS011;45749;51.140;17.184;2022-08-01T02:15:02;4.30;;;3.90;;
59876;SDS011;45749;51.140;17.184;2022-08-01T02:17:30;5.37;;;3.90;;
59876;SDS011;45749;51.140;17.184;2022-08-01T02:19:57;5.03;;;4.03;;
59876;SDS011;45749;51.140;17.184;2022-08-01T02:22:36;4.85;;;4.33;;
59876;SDS011;45749;51.140;17.184;2022-08-01T02:25:23;4.55;;;4.15;;
59876;SDS011;45749;51.140;17.184;2022-08-01T02:28:09;4.75;;;3.80;;
59876;SDS011;45749;51.140;17.184;2022-08-01T02:30:56;5.05;;;3.77;;
59876;SDS011;45749;51.140;17.184;2022-08-01T02:33:31;5.65;;;4.30;;
59876;SDS011;45749;51.140;17.184;2022-08-01T02:36:06;5.33;;;4.65;;
59876;SDS011;45749;51.140;17.184;2022-08-01T02:38:35;5.08;;;4.62;;
59876;SDS011;45749;51.140;17.184;2022-08-01T02:41:09;5.55;;;4.75;;
59876;SDS011;45749;51.140;17.184;2022-08-01T02:43:40;5.33;;;4.80;;
59876;SDS011;45749;51.140;17.184;2022-08-01T02:46:11;4.70;;;4.30;;
59876;SDS011;45749;51.140;17.184;2022-08-01T02:48:40;8.13;;;5.45;;
59876;SDS011;45749;51.140;17.184;2022-08-01T02:51:07;5.17;;;4.67;;
59876;SDS011;45749;51.140;17.184;2022-08-01T02:53:37;5.08;;;4.50;;
59876;SDS011;45749;51.140;17.184;2022-08-01T02:56:07;7.22;;;6.40;;
59876;SDS011;45749;51.140;17.184;2022-08-01T02:58:35;7.12;;;6.03;;
59876;SDS011;45749;51.140;17.184;2022-08-01T03:01:03;4.92;;;4.37;;
59876;SDS011;45749;51.140;17.184;2022-08-01T03:03:31;5.67;;;5.17;;
59876;SDS011;45749;51.140;17.184;2022-08-01T03:05:59;5.80;;;4.87;;
59876;SDS011;45749;51.140;17.184;2022-08-01T03:08:28;6.12;;;4.78;;
59876;SDS011;45749;51.140;17.184;2022-08-01T03:10:56;4.92;;;4.28;;
59876;SDS011;45749;51.140;17.184;2022-08-01T03:13:25;5.65;;;4.95;;
59876;SDS011;45749;51.140;17.184;2022-08-01T03:15:52;8.53;;;4.55;;
59876;SDS011;45749;51.140;17.184;2022-08-01T03:18:21;5.75;;;4.55;;
59876;SDS011;45749;51.140;17.184;2022-08-01T03:20:50;5.35;;;4.78;;
59876;SDS011;45749;51.140;17.184;2022-08-01T03:23:17;6.17;;;4.75;;
59876;SDS011;45749;51.140;17.184;2022-08-01T03:25:46;8.23;;;5.15;;
59876;SDS011;45749;51.140;17.184;2022-08-01T03:28:15;12.85;;;5.92;;
59876;SDS011;45749;51.140;17.184;2022-08-01T03:30:42;5.37;;;4.87;;
59876;SDS011;45749;51.140;17.184;2022-08-01T03:33:09;7.45;;;5.22;;
59876;SDS011;45749;51.140;17.184;2022-08-01T03:35:37;5.72;;;5.20;;
59876;SDS011;45749;51.140;17.184;2022-08-01T03:38:08;6.37;;;5.87;;
59876;SDS011;45749;51.140;17.184;2022-08-01T03:40:37;7.92;;;5.10;;
59876;SDS011;45749;51.140;17.184;2022-08-01T03:43:22;5.58;;;5.08;;
59876;SDS011;45749;51.140;17.184;2022-08-01T03:45:53;7.05;;;5.60;;
59876;SDS011;45749;51.140;17.184;2022-08-01T03:48:22;7.75;;;5.60;;
59876;SDS011;45749;51.140;17.184;2022-08-01T03:50:53;7.37;;;5.35;;
59876;SDS011;45749;51.140;17.184;2022-08-01T03:53:22;6.58;;;5.42;;
59876;SDS011;45749;51.140;17.184;2022-08-01T03:55:50;6.30;;;5.70;;
59876;SDS011;45749;51.140;17.184;2022-08-01T03:58:19;8.05;;;6.47;;
59876;SDS011;45749;51.140;17.184;2022-08-01T04:00:47;6.90;;;4.80;;
59876;SDS011;45749;51.140;17.184;2022-08-01T04:03:14;6.70;;;5.50;;
59876;SDS011;45749;51.140;17.184;2022-08-01T04:05:41;7.17;;;5.40;;
59876;SDS011;45749;51.140;17.184;2022-08-01T04:08:08;6.72;;;5.40;;
59876;SDS011;45749;51.140;17.184;2022-08-01T04:10:34;8.28;;;6.22;;
59876;SDS011;45749;51.140;17.184;2022-08-01T04:13:02;7.83;;;5.97;;
59876;SDS011;45749;51.140;17.184;2022-08-01T04:15:28;6.60;;;5.05;;
59876;SDS011;45749;51.140;17.184;2022-08-01T04:17:54;8.28;;;5.72;;
59876;SDS011;45749;51.140;17.184;2022-08-01T04:20:20;8.40;;;5.58;;
59876;SDS011;45749;51.140;17.184;2022-08-01T04:22:46;8.68;;;5.37;;
59876;SDS011;45749;51.140;17.184;2022-08-01T04:25:21;6.45;;;5.78;;
59876;SDS011;45749;51.140;17.184;2022-08-01T04:27:53;9.50;;;6.20;;
59876;SDS011;45749;51.140;17.184;2022-08-01T04:30:22;9.20;;;5.92;;
59876;SDS011;45749;51.140;17.184;2022-08-01T04:32:55;6.92;;;6.08;;
59876;SDS011;45749;51.140;17.184;2022-08-01T04:35:25;7.30;;;6.08;;
59876;SDS011;45749;51.140;17.184;2022-08-01T04:37:52;6.35;;;5.75;;
59876;SDS011;45749;51.140;17.184;2022-08-01T04:40:19;9.53;;;6.85;;
59876;SDS011;45749;51.140;17.184;2022-08-01T04:42:47;9.85;;;6.28;;
59876;SDS011;45749;51.140;17.184;2022-08-01T04:45:14;8.00;;;6.60;;
59876;SDS011;45749;51.140;17.184;2022-08-01T04:47:41;7.33;;;6.62;;
59876;SDS011;45749;51.140;17.184;2022-08-01T04:50:08;7.08;;;5.60;;
59876;SDS011;45749;51.140;17.184;2022-08-01T04:52:36;6.72;;;6.03;;
59876;SDS011;45749;51.140;17.184;2022-08-01T04:55:04;6.80;;;5.45;;
59876;SDS011;45749;51.140;17.184;2022-08-01T04:57:36;7.72;;;6.10;;
59876;SDS011;45749;51.140;17.184;2022-08-01T05:00:02;5.35;;;4.85;;
59876;SDS011;45749;51.140;17.184;2022-08-01T05:02:29;7.92;;;5.40;;
59876;SDS011;45749;51.140;17.184;2022-08-01T05:04:55;7.35;;;4.90;;
59876;SDS011;45749;51.140;17.184;2022-08-01T05:07:21;8.63;;;5.45;;
59876;SDS011;45749;51.140;17.184;2022-08-01T05:09:47;6.90;;;5.12;;
59876;SDS011;45749;51.140;17.184;2022-08-01T05:12:14;5.95;;;5.12;;
59876;SDS011;45749;51.140;17.184;2022-08-01T05:14:40;7.67;;;6.70;;
59876;SDS011;45749;51.140;17.184;2022-08-01T05:17:07;7.40;;;4.50;;
59876;SDS011;45749;51.140;17.184;2022-08-01T05:19:35;7.15;;;5.50;;
59876;SDS011;45749;51.140;17.184;2022-08-01T05:22:08;8.78;;;5.42;;
59876;SDS011;45749;51.140;17.184;2022-08-01T05:24:34;8.70;;;5.65;;
59876;SDS011;45749;51.140;17.184;2022-08-01T05:27:02;8.05;;;5.47;;
59876;SDS011;45749;51.140;17.184;2022-08-01T05:29:29;7.17;;;5.53;;
59876;SDS011;45749;51.140;17.184;2022-08-01T05:31:55;6.08;;;5.30;;
59876;SDS011;45749;51.140;17.184;2022-08-01T05:34:22;5.45;;;4.45;;
59876;SDS011;45749;51.140;17.184;2022-08-01T05:36:48;10.28;;;4.85;;
59876;SDS011;45749;51.140;17.184;2022-08-01T05:39:14;5.12;;;4.62;;
59876;SDS011;45749;51.140;17.184;2022-08-01T05:41:40;6.00;;;4.85;;
59876;SDS011;45749;51.140;17.184;2022-08-01T05:44:07;6.42;;;4.85;;
59876;SDS011;45749;51.140;17.184;2022-08-01T05:46:34;6.35;;;4.67;;
59876;SDS011;45749;51.140;17.184;2022-08-01T05:49:01;5.03;;;4.53;;
59876;SDS011;45749;51.140;17.184;2022-08-01T05:51:29;5.75;;;5.22;;
59876;SDS011;45749;51.140;17.184;2022-08-01T05:53:55;6.03;;;5.03;;
59876;SDS011;45749;51.140;17.184;2022-08-01T05:56:21;6.72;;;5.05;;
59876;SDS011;45749;51.140;17.184;2022-08-01T05:58:48;10.38;;;5.60;;
59876;SDS011;45749;51.140;17.184;2022-08-01T06:01:16;6.55;;;5.58;;
59876;SDS011;45749;51.140;17.184;2022-08-01T06:03:42;7.53;;;5.53;;
59876;SDS011;45749;51.140;17.184;2022-08-01T06:06:09;7.25;;;5.47;;
59876;SDS011;45749;51.140;17.184;2022-08-01T06:08:35;8.80;;;6.08;;
59876;SDS011;45749;51.140;17.184;2022-08-01T06:11:01;7.97;;;5.58;;
59876;SDS011;45749;51.140;17.184;2022-08-01T06:13:27;6.55;;;5.37;;
59876;SDS011;45749;51.140;17.184;2022-08-01T06:15:54;5.22;;;4.58;;
59876;SDS011;45749;51.140;17.184;2022-08-01T06:18:20;9.33;;;6.37;;
59876;SDS011;45749;51.140;17.184;2022-08-01T06:20:46;8.25;;;5.78;;
59876;SDS011;45749;51.140;17.184;2022-08-01T06:23:12;9.03;;;5.97;;
59876;SDS011;45749;51.140;17.184;2022-08-01T06:25:40;9.75;;;5.15;;
59876;SDS011;45749;51.140;17.184;2022-08-01T06:28:07;10.45;;;5.95;;
59876;SDS011;45749;51.140;17.184;2022-08-01T06:30:36;13.62;;;6.80;;
59876;SDS011;45749;51.140;17.184;2022-08-01T06:33:02;11.15;;;6.00;;
59876;SDS011;45749;51.140;17.184;2022-08-01T06:35:28;13.40;;;7.28;;
59876;SDS011;45749;51.140;17.184;2022-08-01T06:37:55;10.03;;;6.70;;
59876;SDS011;45749;51.140;17.184;2022-08-01T06:40:22;9.05;;;7.33;;
59876;SDS011;45749;51.140;17.184;2022-08-01T06:42:48;21.77;;;9.10;;
59876;SDS011;45749;51.140;17.184;2022-08-01T06:45:14;20.80;;;7.28;;
59876;SDS011;45749;51.140;17.184;2022-08-01T06:47:42;10.03;;;6.83;;
59876;SDS011;45749;51.140;17.184;2022-08-01T06:50:09;9.05;;;7.75;;
59876;SDS011;45749;51.140;17.184;2022-08-01T06:52:36;11.28;;;6.87;;
59876;SDS011;45749;51.140;17.184;2022-08-01T06:55:03;14.55;;;8.48;;
59876;SDS011;45749;51.140;17.184;2022-08-01T06:57:30;11.25;;;7.25;;
59876;SDS011;45749;51.140;17.184;2022-08-01T06:59:57;21.62;;;8.75;;
59876;SDS011;45749;51.140;17.184;2022-08-01T07:02:36;9.68;;;7.97;;
59876;SDS011;45749;51.140;17.184;2022-08-01T07:05:02;11.48;;;7.83;;
59876;SDS011;45749;51.140;17.184;2022-08-01T07:07:29;20.45;;;9.95;;
59876;SDS011;45749;51.140;17.184;2022-08-01T07:09:56;12.25;;;8.28;;
59876;SDS011;45749;51.140;17.184;2022-08-01T07:12:22;12.20;;;7.95;;
59876;SDS011;45749;51.140;17.184;2022-08-01T07:14:48;9.93;;;8.23;;
59876;SDS011;45749;51.140;17.184;2022-08-01T07:17:14;10.28;;;7.47;;
59876;SDS011;45749;51.140;17.184;2022-08-01T07:19:40;7.97;;;7.17;;
59876;SDS011;45749;51.140;17.184;2022-08-01T07:22:06;8.08;;;7.28;;
59876;SDS011;45749;51.140;17.184;2022-08-01T07:24:32;9.13;;;7.40;;
59876;SDS011;45749;51.140;17.184;2022-08-01T07:26:58;8.43;;;7.22;;
59876;SDS011;45749;51.140;17.184;2022-08-01T07:29:24;9.00;;;7.87;;
59876;SDS011;45749;51.140;17.184;2022-08-01T07:31:51;26.25;;;9.13;;
59876;SDS011;45749;51.140;17.184;2022-08-01T07:34:19;28.77;;;9.98;;
59876;SDS011;45749;51.140;17.184;2022-08-01T07:36:46;15.38;;;7.17;;
59876;SDS011;45749;51.140;17.184;2022-08-01T07:39:12;7.95;;;6.83;;
59876;SDS011;45749;51.140;17.184;2022-08-01T07:41:38;8.48;;;6.80;;
59876;SDS011;45749;51.140;17.184;2022-08-01T07:44:04;8.85;;;7.75;;
59876;SDS011;45749;51.140;17.184;2022-08-01T07:46:30;9.25;;;7.33;;
59876;SDS011;45749;51.140;17.184;2022-08-01T07:48:56;9.70;;;8.38;;
59876;SDS011;45749;51.140;17.184;2022-08-01T07:51:22;8.88;;;7.50;;
59876;SDS011;45749;51.140;17.184;2022-08-01T07:53:48;9.60;;;6.53;;
59876;SDS011;45749;51.140;17.184;2022-08-01T07:56:14;7.28;;;6.12;;
59876;SDS011;45749;51.140;17.184;2022-08-01T07:58:40;7.35;;;6.62;;
59876;SDS011;45749;51.140;17.184;2022-08-01T08:01:06;6.87;;;6.05;;
59876;SDS011;45749;51.140;17.184;2022-08-01T08:03:32;9.63;;;6.30;;
59876;SDS011;45749;51.140;17.184;2022-08-01T08:05:58;7.80;;;6.47;;
59876;SDS011;45749;51.140;17.184;2022-08-01T08:08:24;6.45;;;5.60;;
59876;SDS011;45749;51.140;17.184;2022-08-01T08:10:50;8.43;;;5.00;;
59876;SDS011;45749;51.140;17.184;2022-08-01T08:13:16;5.80;;;5.22;;
59876;SDS011;45749;51.140;17.184;2022-08-01T08:15:42;8.05;;;6.22;;
59876;SDS011;45749;51.140;17.184;2022-08-01T08:18:08;14.35;;;6.17;;
59876;SDS011;45749;51.140;17.184;2022-08-01T08:20:34;5.72;;;5.17;;
59876;SDS011;45749;51.140;17.184;2022-08-01T08:23:00;6.42;;;5.53;;
59876;SDS011;45749;51.140;17.184;2022-08-01T08:25:26;5.37;;;4.65;;
59876;SDS011;45749;51.140;17.184;2022-08-01T08:27:54;6.67;;;5.97;;
59876;SDS011;45749;51.140;17.184;2022-08-01T08:30:20;5.30;;;4.80;;
59876;SDS011;45749;51.140;17.184;2022-08-01T08:32:46;8.40;;;6.58;;
59876;SDS011;45749;51.140;17.184;2022-08-01T08:35:13;9.15;;;5.42;;
59876;SDS011;45749;51.140;17.184;2022-08-01T08:37:39;7.17;;;5.70;;
59876;SDS011;45749;51.140;17.184;2022-08-01T08:40:05;8.75;;;5.80;;
59876;SDS011;45749;51.140;17.184;2022-08-01T08:42:32;10.98;;;5.17;;
59876;SDS011;45749;51.140;17.184;2022-08-01T08:45:00;8.58;;;5.75;;
59876;SDS011;45749;51.140;17.184;2022-08-01T08:47:26;12.00;;;5.55;;
59876;SDS011;45749;51.140;17.184;2022-08-01T08:49:55;7.00;;;5.55;;
59876;SDS011;45749;51.140;17.184;2022-08-01T08:52:22;7.72;;;4.65;;
59876;SDS011;45749;51.140;17.184;2022-08-01T08:54:49;5.55;;;5.05;;
59876;SDS011;45749;51.140;17.184;2022-08-01T08:57:16;7.37;;;5.42;;
59876;SDS011;45749;51.140;17.184;2022-08-01T08:59:45;7.12;;;5.37;;
59876;SDS011;45749;51.140;17.184;2022-08-01T09:02:12;6.05;;;5.55;;
59876;SDS011;45749;51.140;17.184;2022-08-01T09:04:38;11.97;;;5.08;;
59876;SDS011;45749;51.140;17.184;2022-08-01T09:07:05;7.60;;;5.30;;
59876;SDS011;45749;51.140;17.184;2022-08-01T09:09:33;5.42;;;4.92;;
59876;SDS011;45749;51.140;17.184;2022-08-01T09:12:00;7.15;;;5.58;;
59876;SDS011;45749;51.140;17.184;2022-08-01T09:14:26;5.17;;;4.62;;
59876;SDS011;45749;51.140;17.184;2022-08-01T09:19:36;5.30;;;4.80;;
59876;SDS011;45749;51.140;17.184;2022-08-01T09:22:05;6.12;;;4.22;;
59876;SDS011;45749;51.140;17.184;2022-08-01T09:24:35;5.47;;;4.92;;
59876;SDS011;45749;51.140;17.184;2022-08-01T09:27:14;6.17;;;5.12;;
59876;SDS011;45749;51.140;17.184;2022-08-01T09:29:48;5.28;;;4.78;;
59876;SDS011;45749;51.140;17.184;2022-08-01T09:32:16;5.42;;;5.03;;
59876;SDS011;45749;51.140;17.184;2022-08-01T09:34:42;6.15;;;5.53;;
59876;SDS011;45749;51.140;17.184;2022-08-01T09:37:08;5.37;;;4.87;;
59876;SDS011;45749;51.140;17.184;2022-08-01T09:39:36;6.85;;;5.15;;
59876;SDS011;45749;51.140;17.184;2022-08-01T09:42:27;4.47;;;4.10;;
59876;SDS011;45749;51.140;17.184;2022-08-01T09:44:49;7.53;;;4.42;;
59876;SDS011;45749;51.140;17.184;2022-08-01T09:47:16;8.93;;;4.92;;
59876;SDS011;45749;51.140;17.184;2022-08-01T09:49:45;6.55;;;4.03;;
59876;SDS011;45749;51.140;17.184;2022-08-01T09:52:21;5.12;;;3.92;;
59876;SDS011;45749;51.140;17.184;2022-08-01T09:54:52;4.40;;;3.92;;
59876;SDS011;45749;51.140;17.184;2022-08-01T09:57:25;6.20;;;3.70;;
59876;SDS011;45749;51.140;17.184;2022-08-01T09:59:53;4.53;;;4.12;;
59876;SDS011;45749;51.140;17.184;2022-08-01T10:05:01;4.95;;;4.08;;
59876;SDS011;45749;51.140;17.184;2022-08-01T10:07:33;5.75;;;4.05;;
59876;SDS011;45749;51.140;17.184;2022-08-01T10:10:13;4.05;;;3.67;;
59876;SDS011;45749;51.140;17.184;2022-08-01T10:12:42;5.35;;;3.85;;
59876;SDS011;45749;51.140;17.184;2022-08-01T10:15:09;5.22;;;4.00;;
59876;SDS011;45749;51.140;17.184;2022-08-01T10:17:36;4.37;;;3.95;;
59876;SDS011;45749;51.140;17.184;2022-08-01T10:20:05;4.25;;;3.55;;
59876;SDS011;45749;51.140;17.184;2022-08-01T10:22:33;4.10;;;3.70;;
59876;SDS011;45749;51.140;17.184;2022-08-01T10:25:01;7.55;;;4.30;;
59876;SDS011;45749;51.140;17.184;2022-08-01T10:27:29;4.97;;;4.05;;
59876;SDS011;45749;51.140;17.184;2022-08-01T10:30:02;4.83;;;4.12;;
59876;SDS011;45749;51.140;17.184;2022-08-01T10:32:31;5.12;;;4.30;;
59876;SDS011;45749;51.140;17.184;2022-08-01T10:34:59;4.87;;;4.37;;
59876;SDS011;45749;51.140;17.184;2022-08-01T10:37:27;4.67;;;3.92;;
59876;SDS011;45749;51.140;17.184;2022-08-01T10:39:53;5.70;;;3.85;;
59876;SDS011;45749;51.140;17.184;2022-08-01T10:42:20;4.47;;;4.03;;
59876;SDS011;45749;51.140;17.184;2022-08-01T10:44:47;5.83;;;3.70;;
59876;SDS011;45749;51.140;17.184;2022-08-01T10:47:15;4.10;;;3.70;;
59876;SDS011;45749;51.140;17.184;2022-08-01T10:49:47;7.78;;;3.92;;
59876;SDS011;45749;51.140;17.184;2022-08-01T10:52:21;5.30;;;4.80;;
59876;SDS011;45749;51.140;17.184;2022-08-01T10:54:48;5.58;;;3.77;;
59876;SDS011;45749;51.140;17.184;2022-08-01T10:57:14;4.25;;;3.62;;
59876;SDS011;45749;51.140;17.184;2022-08-01T10:59:50;3.55;;;3.25;;
59876;SDS011;45749;51.140;17.184;2022-08-01T11:02:31;5.17;;;3.80;;
59876;SDS011;45749;51.140;17.184;2022-08-01T11:05:03;4.47;;;3.72;;
59876;SDS011;45749;51.140;17.184;2022-08-01T11:07:42;4.33;;;3.50;;
59876;SDS011;45749;51.140;17.184;2022-08-01T11:10:25;4.62;;;4.00;;
59876;SDS011;45749;51.140;17.184;2022-08-01T11:13:08;4.33;;;3.95;;
59876;SDS011;45749;51.140;17.184;2022-08-01T11:15:36;5.72;;;3.75;;
59876;SDS011;45749;51.140;17.184;2022-08-01T11:18:29;7.42;;;3.70;;
59876;SDS011;45749;51.140;17.184;2022-08-01T11:20:56;4.80;;;3.62;;
59876;SDS011;45749;51.140;17.184;2022-08-01T11:23:27;3.42;;;3.12;;
59876;SDS011;45749;51.140;17.184;2022-08-01T11:28:29;3.37;;;3.08;;
59876;SDS011;45749;51.140;17.184;2022-08-01T11:36:16;3.33;;;3.02;;
59876;SDS011;45749;51.140;17.184;2022-08-01T11:38:46;5.17;;;3.22;;
59876;SDS011;45749;51.140;17.184;2022-08-01T11:41:14;3.60;;;3.30;;
59876;SDS011;45749;51.140;17.184;2022-08-01T11:46:48;4.72;;;3.85;;
59876;SDS011;45749;51.140;17.184;2022-08-01T11:54:48;4.33;;;3.60;;
59876;SDS011;45749;51.140;17.184;2022-08-01T11:57:18;4.62;;;3.90;;
59876;SDS011;45749;51.140;17.184;2022-08-01T11:59:55;8.30;;;4.35;;
59876;SDS011;45749;51.140;17.184;2022-08-01T12:02:27;7.87;;;4.45;;
59876;SDS011;45749;51.140;17.184;2022-08-01T12:07:40;3.80;;;3.10;;
59876;SDS011;45749;51.140;17.184;2022-08-01T12:10:08;3.92;;;3.40;;
59876;SDS011;45749;51.140;17.184;2022-08-01T12:12:44;6.58;;;3.33;;
59876;SDS011;45749;51.140;17.184;2022-08-01T12:15:13;4.85;;;3.65;;
59876;SDS011;45749;51.140;17.184;2022-08-01T12:17:46;5.42;;;3.83;;
59876;SDS011;45749;51.140;17.184;2022-08-01T12:20:16;5.35;;;3.85;;
59876;SDS011;45749;51.140;17.184;2022-08-01T12:22:46;4.30;;;3.77;;
59876;SDS011;45749;51.140;17.184;2022-08-01T12:25:14;4.28;;;3.17;;
59876;SDS011;45749;51.140;17.184;2022-08-01T12:27:43;16.75;;;9.20;;
59876;SDS011;45749;51.140;17.184;2022-08-01T12:30:12;4.33;;;3.35;;
59876;SDS011;45749;51.140;17.184;2022-08-01T12:32:45;29.20;;;8.85;;
59876;SDS011;45749;51.140;17.184;2022-08-01T12:35:17;4.00;;;3.42;;
59876;SDS011;45749;51.140;17.184;2022-08-01T12:40:16;3.08;;;2.85;;
59876;SDS011;45749;51.140;17.184;2022-08-01T12:42:49;5.15;;;3.33;;
59876;SDS011;45749;51.140;17.184;2022-08-01T12:45:24;5.03;;;3.45;;
59876;SDS011;45749;51.140;17.184;2022-08-01T12:48:00;4.30;;;3.90;;
59876;SDS011;45749;51.140;17.184;2022-08-01T12:50:28;6.08;;;3.70;;
59876;SDS011;45749;51.140;17.184;2022-08-01T12:52:57;3.77;;;3.45;;
59876;SDS011;45749;51.140;17.184;2022-08-01T12:55:24;4.58;;;3.37;;
59876;SDS011;45749;51.140;17.184;2022-08-01T13:00:37;4.35;;;3.35;;
59876;SDS011;45749;51.140;17.184;2022-08-01T13:03:12;4.30;;;3.47;;
59876;SDS011;45749;51.140;17.184;2022-08-01T13:05:41;3.02;;;2.72;;
59876;SDS011;45749;51.140;17.184;2022-08-01T13:08:29;4.65;;;2.65;;
59876;SDS011;45749;51.140;17.184;2022-08-01T13:11:03;4.83;;;2.87;;
59876;SDS011;45749;51.140;17.184;2022-08-01T13:13:37;2.75;;;2.50;;
59876;SDS011;45749;51.140;17.184;2022-08-01T13:16:07;4.22;;;2.40;;
59876;SDS011;45749;51.140;17.184;2022-08-01T13:18:35;3.45;;;3.15;;
59876;SDS011;45749;51.140;17.184;2022-08-01T13:23:42;3.98;;;2.83;;
59876;SDS011;45749;51.140;17.184;2022-08-01T13:32:13;3.22;;;2.92;;
59876;SDS011;45749;51.140;17.184;2022-08-01T13:34:42;3.70;;;3.40;;
59876;SDS011;45749;51.140;17.184;2022-08-01T13:37:08;3.98;;;3.67;;
59876;SDS011;45749;51.140;17.184;2022-08-01T13:39:34;4.33;;;3.50;;
59876;SDS011;45749;51.140;17.184;2022-08-01T13:42:07;4.05;;;3.42;;
59876;SDS011;45749;51.140;17.184;2022-08-01T13:44:36;4.17;;;3.87;;
59876;SDS011;45749;51.140;17.184;2022-08-01T13:47:03;6.33;;;4.33;;
59876;SDS011;45749;51.140;17.184;2022-08-01T13:49:30;4.22;;;3.80;;
59876;SDS011;45749;51.140;17.184;2022-08-01T13:51:56;4.97;;;4.20;;
59876;SDS011;45749;51.140;17.184;2022-08-01T13:54:23;4.03;;;3.62;;
59876;SDS011;45749;51.140;17.184;2022-08-01T13:56:51;4.53;;;4.12;;
59876;SDS011;45749;51.140;17.184;2022-08-01T13:59:18;5.22;;;4.10;;
59876;SDS011;45749;51.140;17.184;2022-08-01T14:01:44;4.30;;;4.00;;
59876;SDS011;45749;51.140;17.184;2022-08-01T14:04:11;5.78;;;3.90;;
59876;SDS011;45749;51.140;17.184;2022-08-01T14:06:38;4.85;;;3.90;;
59876;SDS011;45749;51.140;17.184;2022-08-01T14:09:04;4.08;;;3.72;;
59876;SDS011;45749;51.140;17.184;2022-08-01T14:11:30;4.10;;;3.77;;
59876;SDS011;45749;51.140;17.184;2022-08-01T14:13:57;4.50;;;3.65;;
59876;SDS011;45749;51.140;17.184;2022-08-01T14:16:23;3.95;;;3.65;;
59876;SDS011;45749;51.140;17.184;2022-08-01T14:18:50;4.72;;;4.03;;
59876;SDS011;45749;51.140;17.184;2022-08-01T14:21:16;3.37;;;3.08;;
59876;SDS011;45749;51.140;17.184;2022-08-01T14:23:42;4.60;;;4.05;;
59876;SDS011;45749;51.140;17.184;2022-08-01T14:26:08;3.65;;;3.35;;
59876;SDS011;45749;51.140;17.184;2022-08-01T14:28:37;3.55;;;2.87;;
59876;SDS011;45749;51.140;17.184;2022-08-01T14:31:04;3.25;;;2.70;;
59876;SDS011;45749;51.140;17.184;2022-08-01T14:33:33;2.33;;;2.12;;
59876;SDS011;45749;51.140;17.184;2022-08-01T14:35:59;2.92;;;2.22;;
59876;SDS011;45749;51.140;17.184;2022-08-01T14:38:26;3.52;;;2.42;;
59876;SDS011;45749;51.140;17.184;2022-08-01T14:40:52;2.80;;;2.60;;
59876;SDS011;45749;51.140;17.184;2022-08-01T14:43:18;3.87;;;2.70;;
59876;SDS011;45749;51.140;17.184;2022-08-01T14:45:46;2.83;;;2.55;;
59876;SDS011;45749;51.140;17.184;2022-08-01T14:48:14;2.62;;;2.27;;
59876;SDS011;45749;51.140;17.184;2022-08-01T14:50:41;2.80;;;2.52;;
59876;SDS011;45749;51.140;17.184;2022-08-01T14:53:07;2.70;;;2.50;;
59876;SDS011;45749;51.140;17.184;2022-08-01T14:55:33;3.62;;;3.05;;
59876;SDS011;45749;51.140;17.184;2022-08-01T14:57:59;3.40;;;3.10;;
59876;SDS011;45749;51.140;17.184;2022-08-01T15:00:25;2.42;;;2.22;;
59876;SDS011;45749;51.140;17.184;2022-08-01T15:02:53;4.90;;;2.40;;
59876;SDS011;45749;51.140;17.184;2022-08-01T15:05:19;2.72;;;2.52;;
59876;SDS011;45749;51.140;17.184;2022-08-01T15:07:45;4.10;;;2.33;;
59876;SDS011;45749;51.140;17.184;2022-08-01T15:10:11;3.42;;;3.12;;
59876;SDS011;45749;51.140;17.184;2022-08-01T15:12:37;2.30;;;2.10;;
59876;SDS011;45749;51.140;17.184;2022-08-01T15:15:47;3.60;;;2.27;;
59876;SDS011;45749;51.140;17.184;2022-08-01T15:17:50;2.80;;;2.60;;
59876;SDS011;45749;51.140;17.184;2022-08-01T15:20:17;2.50;;;2.30;;
59876;SDS011;45749;51.140;17.184;2022-08-01T15:22:44;2.10;;;1.90;;
59876;SDS011;45749;51.140;17.184;2022-08-01T15:25:10;3.65;;;2.08;;
59876;SDS011;45749;51.140;17.184;2022-08-01T15:27:36;2.47;;;1.90;;
59876;SDS011;45749;51.140;17.184;2022-08-01T15:30:02;2.00;;;1.70;;
59876;SDS011;45749;51.140;17.184;2022-08-01T15:32:29;2.83;;;2.00;;
59876;SDS011;45749;51.140;17.184;2022-08-01T15:34:55;4.25;;;2.45;;
59876;SDS011;45749;51.140;17.184;2022-08-01T15:37:21;2.35;;;2.15;;
59876;SDS011;45749;51.140;17.184;2022-08-01T15:39:47;2.25;;;2.05;;
59876;SDS011;45749;51.140;17.184;2022-08-01T15:42:15;2.58;;;2.37;;
59876;SDS011;45749;51.140;17.184;2022-08-01T15:44:42;3.40;;;2.90;;